sensor_id;sensor_type;location;lat;lon;timestamp;pressure;altitude;pressure_sealevel;temperature
14666;BMP280;7420;53.574;10.040;2023-07-28T00:02:12;54225.19;;;-136.87
14666;BMP280;7420;53.574;10.040;2023-07-28T00:04:38;54225.19;;;-136.87
14666;BMP280;7420;53.574;10.040;2023-07-28T00:07:04;54225.19;;;-136.87
14666;BMP280;7420;53.574;10.040;2023-07-28T00:09:30;54225.19;;;-136.87
14666;BMP280;7420;53.574;10.040;2023-07-28T00:11:56;54225.19;;;-136.87
14666;BMP280;7420;53.574;10.040;2023-07-28T00:14:22;54225.19;;;-136.87
14666;BMP280;7420;53.574;10.040;2023-07-28T00:16:50;54223.16;;;-136.87
14666;BMP280;7420;53.574;10.040;2023-07-28T00:19:15;54225.19;;;-136.87
14666;BMP280;7420;53.574;10.040;2023-07-28T00:21:41;54221.13;;;-136.87
14666;BMP280;7420;53.574;10.040;2023-07-28T00:24:06;54225.19;;;-136.87
14666;BMP280;7420;53.574;10.040;2023-07-28T00:26:31;54223.16;;;-136.87
14666;BMP280;7420;53.574;10.040;2023-07-28T00:28:56;54223.16;;;-136.87
14666;BMP280;7420;53.574;10.040;2023-07-28T00:31:24;54225.19;;;-136.87
14666;BMP280;7420;53.574;10.040;2023-07-28T00:33:49;54225.19;;;-136.87
14666;BMP280;7420;53.574;10.040;2023-07-28T00:36:14;54223.16;;;-136.87
14666;BMP280;7420;53.574;10.040;2023-07-28T00:38:40;54225.19;;;-136.87
14666;BMP280;7420;53.574;10.040;2023-07-28T00:41:05;54225.19;;;-136.87
14666;BMP280;7420;53.574;10.040;2023-07-28T00:43:30;54225.19;;;-136.87
14666;BMP280;7420;53.574;10.040;2023-07-28T00:45:56;54225.19;;;-136.87
14666;BMP280;7420;53.574;10.040;2023-07-28T00:48:21;54221.13;;;-136.87
14666;BMP280;7420;53.574;10.040;2023-07-28T00:50:48;54225.19;;;-136.87
14666;BMP280;7420;53.574;10.040;2023-07-28T00:53:15;54225.19;;;-136.87
14666;BMP280;7420;53.574;10.040;2023-07-28T00:55:41;54225.19;;;-136.87
14666;BMP280;7420;53.574;10.040;2023-07-28T00:58:08;54227.25;;;-136.87
14666;BMP280;7420;53.574;10.040;2023-07-28T01:00:33;54223.16;;;-136.87
14666;BMP280;7420;53.574;10.040;2023-07-28T01:02:59;54223.16;;;-136.87
14666;BMP280;7420;53.574;10.040;2023-07-28T01:05:30;54225.19;;;-136.87
14666;BMP280;7420;53.574;10.040;2023-07-28T01:08:12;54223.16;;;-136.87
14666;BMP280;7420;53.574;10.040;2023-07-28T01:10:42;54223.16;;;-136.87
14666;BMP280;7420;53.574;10.040;2023-07-28T01:13:07;54225.19;;;-136.87
14666;BMP280;7420;53.574;10.040;2023-07-28T01:15:32;54225.19;;;-136.87
14666;BMP280;7420;53.574;10.040;2023-07-28T01:17:58;54223.16;;;-136.87
14666;BMP280;7420;53.574;10.040;2023-07-28T01:20:25;54225.19;;;-136.87
14666;BMP280;7420;53.574;10.040;2023-07-28T01:26:03;54225.19;;;-136.87
14666;BMP280;7420;53.574;10.040;2023-07-28T01:28:31;54225.19;;;-136.87
14666;BMP280;7420;53.574;10.040;2023-07-28T01:30:57;54223.16;;;-136.87
14666;BMP280;7420;53.574;10.040;2023-07-28T01:33:23;54223.16;;;-136.87
14666;BMP280;7420;53.574;10.040;2023-07-28T01:35:48;54223.16;;;-136.87
14666;BMP280;7420;53.574;10.040;2023-07-28T01:38:14;54221.13;;;-136.87
14666;BMP280;7420;53.574;10.040;2023-07-28T01:40:39;54221.13;;;-136.87
14666;BMP280;7420;53.574;10.040;2023-07-28T01:43:05;54225.19;;;-136.87
14666;BMP280;7420;53.574;10.040;2023-07-28T01:45:30;54223.16;;;-136.87
14666;BMP280;7420;53.574;10.040;2023-07-28T01:47:55;54225.19;;;-136.87
14666;BMP280;7420;53.574;10.040;2023-07-28T01:50:21;54225.19;;;-136.87
14666;BMP280;7420;53.574;10.040;2023-07-28T01:52:46;54225.19;;;-136.87
14666;BMP280;7420;53.574;10.040;2023-07-28T01:55:11;54223.16;;;-136.87
14666;BMP280;7420;53.574;10.040;2023-07-28T01:57:39;54223.16;;;-136.87
14666;BMP280;7420;53.574;10.040;2023-07-28T02:00:05;54225.19;;;-136.87
14666;BMP280;7420;53.574;10.040;2023-07-28T02:02:30;54227.25;;;-136.87
14666;BMP280;7420;53.574;10.040;2023-07-28T02:04:56;54223.16;;;-136.87
14666;BMP280;7420;53.574;10.040;2023-07-28T02:07:21;54225.19;;;-136.87
14666;BMP280;7420;53.574;10.040;2023-07-28T02:09:46;54227.25;;;-136.87
14666;BMP280;7420;53.574;10.040;2023-07-28T02:12:12;54221.13;;;-136.87
14666;BMP280;7420;53.574;10.040;2023-07-28T02:14:37;54225.19;;;-136.87
14666;BMP280;7420;53.574;10.040;2023-07-28T02:17:03;54225.19;;;-136.87
14666;BMP280;7420;53.574;10.040;2023-07-28T02:19:28;54225.19;;;-136.87
14666;BMP280;7420;53.574;10.040;2023-07-28T02:21:53;54229.28;;;-136.87
14666;BMP280;7420;53.574;10.040;2023-07-28T02:24:19;54223.16;;;-136.87
14666;BMP280;7420;53.574;10.040;2023-07-28T02:26:44;54221.13;;;-136.87
14666;BMP280;7420;53.574;10.040;2023-07-28T02:29:09;54223.16;;;-136.87
14666;BMP280;7420;53.574;10.040;2023-07-28T02:31:35;54225.19;;;-136.87
14666;BMP280;7420;53.574;10.040;2023-07-28T02:34:00;54225.19;;;-136.87
14666;BMP280;7420;53.574;10.040;2023-07-28T02:36:25;54223.16;;;-136.87
14666;BMP280;7420;53.574;10.040;2023-07-28T02:38:51;54225.19;;;-136.87
14666;BMP280;7420;53.574;10.040;2023-07-28T02:41:16;54221.13;;;-136.87
14666;BMP280;7420;53.574;10.040;2023-07-28T02:43:42;54225.19;;;-136.87
14666;BMP280;7420;53.574;10.040;2023-07-28T02:46:07;54227.25;;;-136.87
14666;BMP280;7420;53.574;10.040;2023-07-28T02:48:32;54221.13;;;-136.87
14666;BMP280;7420;53.574;10.040;2023-07-28T02:50:58;54227.25;;;-136.87
14666;BMP280;7420;53.574;10.040;2023-07-28T02:53:23;54225.19;;;-136.87
14666;BMP280;7420;53.574;10.040;2023-07-28T02:55:48;54223.16;;;-136.87
14666;BMP280;7420;53.574;10.040;2023-07-28T03:01:00;54225.19;;;-136.87
14666;BMP280;7420;53.574;10.040;2023-07-28T03:03:25;54223.16;;;-136.87
14666;BMP280;7420;53.574;10.040;2023-07-28T03:05:53;54225.19;;;-136.87
14666;BMP280;7420;53.574;10.040;2023-07-28T03:08:20;54225.19;;;-136.87
14666;BMP280;7420;53.574;10.040;2023-07-28T03:10:45;54225.19;;;-136.87
14666;BMP280;7420;53.574;10.040;2023-07-28T03:13:11;54225.19;;;-136.87
14666;BMP280;7420;53.574;10.040;2023-07-28T03:15:36;54223.16;;;-136.87
14666;BMP280;7420;53.574;10.040;2023-07-28T03:18:02;54225.19;;;-136.87
14666;BMP280;7420;53.574;10.040;2023-07-28T03:20:27;54225.19;;;-136.87
14666;BMP280;7420;53.574;10.040;2023-07-28T03:22:52;54223.16;;;-136.87
14666;BMP280;7420;53.574;10.040;2023-07-28T03:25:20;54227.25;;;-136.87
14666;BMP280;7420;53.574;10.040;2023-07-28T03:27:45;54225.19;;;-136.87
14666;BMP280;7420;53.574;10.040;2023-07-28T03:30:10;54225.19;;;-136.87
14666;BMP280;7420;53.574;10.040;2023-07-28T03:32:36;54223.16;;;-136.87
14666;BMP280;7420;53.574;10.040;2023-07-28T03:35:02;54221.13;;;-136.87
14666;BMP280;7420;53.574;10.040;2023-07-28T03:37:31;54225.19;;;-136.87
14666;BMP280;7420;53.574;10.040;2023-07-28T03:39:56;54225.19;;;-136.87
14666;BMP280;7420;53.574;10.040;2023-07-28T03:42:21;54225.19;;;-136.87
14666;BMP280;7420;53.574;10.040;2023-07-28T03:44:47;54223.16;;;-136.87
14666;BMP280;7420;53.574;10.040;2023-07-28T03:47:12;54223.16;;;-136.87
14666;BMP280;7420;53.574;10.040;2023-07-28T03:49:37;54221.13;;;-136.87
14666;BMP280;7420;53.574;10.040;2023-07-28T03:52:03;54223.16;;;-136.87
14666;BMP280;7420;53.574;10.040;2023-07-28T03:54:28;54225.19;;;-136.87
14666;BMP280;7420;53.574;10.040;2023-07-28T03:56:53;54225.19;;;-136.87
14666;BMP280;7420;53.574;10.040;2023-07-28T03:59:19;54227.25;;;-136.87
14666;BMP280;7420;53.574;10.040;2023-07-28T04:01:44;54225.19;;;-136.87
14666;BMP280;7420;53.574;10.040;2023-07-28T04:04:09;54227.25;;;-136.87
14666;BMP280;7420;53.574;10.040;2023-07-28T04:06:42;54223.16;;;-136.87
14666;BMP280;7420;53.574;10.040;2023-07-28T04:09:08;54225.19;;;-136.87
14666;BMP280;7420;53.574;10.040;2023-07-28T04:11:33;54225.19;;;-136.87
14666;BMP280;7420;53.574;10.040;2023-07-28T04:13:59;54225.19;;;-136.87
14666;BMP280;7420;53.574;10.040;2023-07-28T04:16:24;54225.19;;;-136.87
14666;BMP280;7420;53.574;10.040;2023-07-28T04:18:49;54223.16;;;-136.87
14666;BMP280;7420;53.574;10.040;2023-07-28T04:21:15;54221.13;;;-136.87
14666;BMP280;7420;53.574;10.040;2023-07-28T04:23:40;54223.16;;;-136.87
14666;BMP280;7420;53.574;10.040;2023-07-28T04:26:06;54225.19;;;-136.87
14666;BMP280;7420;53.574;10.040;2023-07-28T04:28:31;54225.19;;;-136.87
14666;BMP280;7420;53.574;10.040;2023-07-28T04:30:56;54225.19;;;-136.87
14666;BMP280;7420;53.574;10.040;2023-07-28T04:33:22;54223.16;;;-136.87
14666;BMP280;7420;53.574;10.040;2023-07-28T04:35:47;54225.19;;;-136.87
14666;BMP280;7420;53.574;10.040;2023-07-28T04:38:13;54221.13;;;-136.87
14666;BMP280;7420;53.574;10.040;2023-07-28T04:40:38;54223.16;;;-136.87
14666;BMP280;7420;53.574;10.040;2023-07-28T04:43:03;54221.13;;;-136.87
14666;BMP280;7420;53.574;10.040;2023-07-28T04:45:28;54221.13;;;-136.87
14666;BMP280;7420;53.574;10.040;2023-07-28T04:47:54;54225.19;;;-136.87
14666;BMP280;7420;53.574;10.040;2023-07-28T04:50:19;54225.19;;;-136.87
14666;BMP280;7420;53.574;10.040;2023-07-28T04:52:44;54225.19;;;-136.87
14666;BMP280;7420;53.574;10.040;2023-07-28T04:55:10;54225.19;;;-136.87
14666;BMP280;7420;53.574;10.040;2023-07-28T04:57:35;54223.16;;;-136.87
14666;BMP280;7420;53.574;10.040;2023-07-28T05:00:00;54223.16;;;-136.87
14666;BMP280;7420;53.574;10.040;2023-07-28T05:02:26;54225.19;;;-136.87
14666;BMP280;7420;53.574;10.040;2023-07-28T05:04:51;54221.13;;;-136.87
14666;BMP280;7420;53.574;10.040;2023-07-28T05:07:16;54225.19;;;-136.87
14666;BMP280;7420;53.574;10.040;2023-07-28T05:09:42;54225.19;;;-136.87
14666;BMP280;7420;53.574;10.040;2023-07-28T05:12:08;54225.19;;;-136.87
14666;BMP280;7420;53.574;10.040;2023-07-28T05:14:34;54223.16;;;-136.87
14666;BMP280;7420;53.574;10.040;2023-07-28T05:16:59;54227.25;;;-136.87
14666;BMP280;7420;53.574;10.040;2023-07-28T05:19:24;54227.25;;;-136.87
14666;BMP280;7420;53.574;10.040;2023-07-28T05:21:50;54223.16;;;-136.87
14666;BMP280;7420;53.574;10.040;2023-07-28T05:24:15;54221.13;;;-136.87
14666;BMP280;7420;53.574;10.040;2023-07-28T05:26:40;54223.16;;;-136.87
14666;BMP280;7420;53.574;10.040;2023-07-28T05:29:06;54227.25;;;-136.87
14666;BMP280;7420;53.574;10.040;2023-07-28T05:31:31;54221.13;;;-136.87
14666;BMP280;7420;53.574;10.040;2023-07-28T05:33:56;54225.19;;;-136.87
14666;BMP280;7420;53.574;10.040;2023-07-28T05:36:23;54223.16;;;-136.87
14666;BMP280;7420;53.574;10.040;2023-07-28T05:38:48;54221.13;;;-136.87
14666;BMP280;7420;53.574;10.040;2023-07-28T05:41:14;54223.16;;;-136.87
14666;BMP280;7420;53.574;10.040;2023-07-28T05:43:40;54225.19;;;-136.87
14666;BMP280;7420;53.574;10.040;2023-07-28T05:46:05;54221.13;;;-136.87
14666;BMP280;7420;53.574;10.040;2023-07-28T05:48:30;54221.13;;;-136.87
14666;BMP280;7420;53.574;10.040;2023-07-28T05:50:56;54227.25;;;-136.87
14666;BMP280;7420;53.574;10.040;2023-07-28T05:53:21;54225.19;;;-136.87
14666;BMP280;7420;53.574;10.040;2023-07-28T05:55:47;54225.19;;;-136.87
14666;BMP280;7420;53.574;10.040;2023-07-28T05:58:13;54223.16;;;-136.87
14666;BMP280;7420;53.574;10.040;2023-07-28T06:00:40;54223.16;;;-136.87
14666;BMP280;7420;53.574;10.040;2023-07-28T06:03:15;54225.19;;;-136.87
14666;BMP280;7420;53.574;10.040;2023-07-28T06:05:42;54225.19;;;-136.87
14666;BMP280;7420;53.574;10.040;2023-07-28T06:08:08;54225.19;;;-136.87
14666;BMP280;7420;53.574;10.040;2023-07-28T06:10:34;54221.13;;;-136.87
14666;BMP280;7420;53.574;10.040;2023-07-28T06:13:00;54223.16;;;-136.87
14666;BMP280;7420;53.574;10.040;2023-07-28T06:15:26;54221.13;;;-136.87
14666;BMP280;7420;53.574;10.040;2023-07-28T06:17:51;54225.19;;;-136.87
14666;BMP280;7420;53.574;10.040;2023-07-28T06:20:17;54225.19;;;-136.87
14666;BMP280;7420;53.574;10.040;2023-07-28T06:22:42;54221.13;;;-136.87
14666;BMP280;7420;53.574;10.040;2023-07-28T06:25:07;54225.19;;;-136.87
14666;BMP280;7420;53.574;10.040;2023-07-28T06:27:33;54221.13;;;-136.87
14666;BMP280;7420;53.574;10.040;2023-07-28T06:29:58;54221.13;;;-136.87
14666;BMP280;7420;53.574;10.040;2023-07-28T06:32:24;54223.16;;;-136.87
14666;BMP280;7420;53.574;10.040;2023-07-28T06:34:49;54225.19;;;-136.87
14666;BMP280;7420;53.574;10.040;2023-07-28T06:37:15;54223.16;;;-136.87
14666;BMP280;7420;53.574;10.040;2023-07-28T06:39:41;54223.16;;;-136.87
14666;BMP280;7420;53.574;10.040;2023-07-28T06:42:07;54221.13;;;-136.87
14666;BMP280;7420;53.574;10.040;2023-07-28T06:44:32;54223.16;;;-136.87
14666;BMP280;7420;53.574;10.040;2023-07-28T06:46:57;54225.19;;;-136.87
14666;BMP280;7420;53.574;10.040;2023-07-28T06:49:23;54225.19;;;-136.87
14666;BMP280;7420;53.574;10.040;2023-07-28T06:51:48;54221.13;;;-136.87
14666;BMP280;7420;53.574;10.040;2023-07-28T06:54:14;54225.19;;;-136.87
14666;BMP280;7420;53.574;10.040;2023-07-28T06:56:40;54225.19;;;-136.87
14666;BMP280;7420;53.574;10.040;2023-07-28T06:59:07;54225.19;;;-136.87
14666;BMP280;7420;53.574;10.040;2023-07-28T07:01:32;54225.19;;;-136.87
14666;BMP280;7420;53.574;10.040;2023-07-28T07:03:58;54221.13;;;-136.87
14666;BMP280;7420;53.574;10.040;2023-07-28T07:06:23;54225.19;;;-136.87
14666;BMP280;7420;53.574;10.040;2023-07-28T07:08:48;54225.19;;;-136.87
14666;BMP280;7420;53.574;10.040;2023-07-28T07:11:14;54223.16;;;-136.87
14666;BMP280;7420;53.574;10.040;2023-07-28T07:13:40;54221.13;;;-136.87
14666;BMP280;7420;53.574;10.040;2023-07-28T07:16:05;54221.13;;;-136.87
14666;BMP280;7420;53.574;10.040;2023-07-28T07:18:38;54223.16;;;-136.87
14666;BMP280;7420;53.574;10.040;2023-07-28T07:21:03;54221.13;;;-136.87
14666;BMP280;7420;53.574;10.040;2023-07-28T07:23:28;54225.19;;;-136.87
14666;BMP280;7420;53.574;10.040;2023-07-28T07:25:54;54225.19;;;-136.87
14666;BMP280;7420;53.574;10.040;2023-07-28T07:28:19;54225.19;;;-136.87
14666;BMP280;7420;53.574;10.040;2023-07-28T07:30:45;54223.16;;;-136.87
14666;BMP280;7420;53.574;10.040;2023-07-28T07:33:10;54223.16;;;-136.87
14666;BMP280;7420;53.574;10.040;2023-07-28T07:35:36;54223.16;;;-136.87
14666;BMP280;7420;53.574;10.040;2023-07-28T07:38:04;54227.25;;;-136.87
14666;BMP280;7420;53.574;10.040;2023-07-28T07:40:32;54223.16;;;-136.87
14666;BMP280;7420;53.574;10.040;2023-07-28T07:42:58;54221.13;;;-136.87
14666;BMP280;7420;53.574;10.040;2023-07-28T07:45:23;54223.16;;;-136.87
14666;BMP280;7420;53.574;10.040;2023-07-28T07:47:48;54223.16;;;-136.87
14666;BMP280;7420;53.574;10.040;2023-07-28T07:50:14;54221.13;;;-136.87
14666;BMP280;7420;53.574;10.040;2023-07-28T07:52:39;54225.19;;;-136.87
14666;BMP280;7420;53.574;10.040;2023-07-28T07:55:05;54225.19;;;-136.87
14666;BMP280;7420;53.574;10.040;2023-07-28T07:57:31;54223.16;;;-136.87
14666;BMP280;7420;53.574;10.040;2023-07-28T07:59:59;54225.19;;;-136.87
14666;BMP280;7420;53.574;10.040;2023-07-28T08:02:25;54223.16;;;-136.87
14666;BMP280;7420;53.574;10.040;2023-07-28T08:04:51;54223.16;;;-136.87
14666;BMP280;7420;53.574;10.040;2023-07-28T08:07:18;54225.19;;;-136.87
14666;BMP280;7420;53.574;10.040;2023-07-28T08:09:44;54221.13;;;-136.87
14666;BMP280;7420;53.574;10.040;2023-07-28T08:12:10;54223.16;;;-136.87
14666;BMP280;7420;53.574;10.040;2023-07-28T08:14:36;54221.13;;;-136.87
14666;BMP280;7420;53.574;10.040;2023-07-28T08:17:02;54223.16;;;-136.87
14666;BMP280;7420;53.574;10.040;2023-07-28T08:19:27;54221.13;;;-136.87
14666;BMP280;7420;53.574;10.040;2023-07-28T08:21:52;54223.16;;;-136.87
14666;BMP280;7420;53.574;10.040;2023-07-28T08:24:18;54225.19;;;-136.87
14666;BMP280;7420;53.574;10.040;2023-07-28T08:26:43;54221.13;;;-136.87
14666;BMP280;7420;53.574;10.040;2023-07-28T08:29:08;54223.16;;;-136.87
14666;BMP280;7420;53.574;10.040;2023-07-28T08:31:34;54221.13;;;-136.87
14666;BMP280;7420;53.574;10.040;2023-07-28T08:33:59;54221.13;;;-136.87
14666;BMP280;7420;53.574;10.040;2023-07-28T08:36:24;54223.16;;;-136.87
14666;BMP280;7420;53.574;10.040;2023-07-28T08:38:50;54221.13;;;-136.87
14666;BMP280;7420;53.574;10.040;2023-07-28T08:41:15;54221.13;;;-136.87
14666;BMP280;7420;53.574;10.040;2023-07-28T08:43:41;54225.19;;;-136.87
14666;BMP280;7420;53.574;10.040;2023-07-28T08:46:07;54223.16;;;-136.87
14666;BMP280;7420;53.574;10.040;2023-07-28T08:48:33;54225.19;;;-136.87
14666;BMP280;7420;53.574;10.040;2023-07-28T08:50:58;54225.19;;;-136.87
14666;BMP280;7420;53.574;10.040;2023-07-28T08:53:24;54223.16;;;-136.87
14666;BMP280;7420;53.574;10.040;2023-07-28T08:55:51;54221.13;;;-136.87
14666;BMP280;7420;53.574;10.040;2023-07-28T08:58:21;54221.13;;;-136.87
14666;BMP280;7420;53.574;10.040;2023-07-28T09:00:48;54223.16;;;-136.87
14666;BMP280;7420;53.574;10.040;2023-07-28T09:03:17;54223.16;;;-136.87
14666;BMP280;7420;53.574;10.040;2023-07-28T09:05:43;54221.13;;;-136.87
14666;BMP280;7420;53.574;10.040;2023-07-28T09:08:12;54223.16;;;-136.87
14666;BMP280;7420;53.574;10.040;2023-07-28T09:10:47;54225.19;;;-136.87
14666;BMP280;7420;53.574;10.040;2023-07-28T09:13:18;54225.19;;;-136.87
14666;BMP280;7420;53.574;10.040;2023-07-28T09:15:44;54221.13;;;-136.87
14666;BMP280;7420;53.574;10.040;2023-07-28T09:18:19;54225.19;;;-136.87
14666;BMP280;7420;53.574;10.040;2023-07-28T09:20:45;54221.13;;;-136.87
14666;BMP280;7420;53.574;10.040;2023-07-28T09:23:13;54221.13;;;-136.87
14666;BMP280;7420;53.574;10.040;2023-07-28T09:25:39;54225.19;;;-136.87
14666;BMP280;7420;53.574;10.040;2023-07-28T09:28:05;54225.19;;;-136.87
14666;BMP280;7420;53.574;10.040;2023-07-28T09:30:49;54225.19;;;-136.87
14666;BMP280;7420;53.574;10.040;2023-07-28T09:33:31;54225.19;;;-136.87
14666;BMP280;7420;53.574;10.040;2023-07-28T09:36:07;54221.13;;;-136.87
14666;BMP280;7420;53.574;10.040;2023-07-28T09:38:36;54221.13;;;-136.87
14666;BMP280;7420;53.574;10.040;2023-07-28T09:41:04;54221.13;;;-136.87
14666;BMP280;7420;53.574;10.040;2023-07-28T09:43:33;54223.16;;;-136.87
14666;BMP280;7420;53.574;10.040;2023-07-28T09:45:59;54221.13;;;-136.87
14666;BMP280;7420;53.574;10.040;2023-07-28T09:48:30;54223.16;;;-136.87
14666;BMP280;7420;53.574;10.040;2023-07-28T09:50:58;54225.19;;;-136.87
14666;BMP280;7420;53.574;10.040;2023-07-28T09:53:27;54225.19;;;-136.87
14666;BMP280;7420;53.574;10.040;2023-07-28T09:55:55;54223.16;;;-136.87
14666;BMP280;7420;53.574;10.040;2023-07-28T09:58:23;54223.16;;;-136.87
14666;BMP280;7420;53.574;10.040;2023-07-28T10:00:50;54223.16;;;-136.87
14666;BMP280;7420;53.574;10.040;2023-07-28T10:03:16;54225.19;;;-136.87
14666;BMP280;7420;53.574;10.040;2023-07-28T10:05:41;54223.16;;;-136.87
14666;BMP280;7420;53.574;10.040;2023-07-28T10:08:07;54223.16;;;-136.87
14666;BMP280;7420;53.574;10.040;2023-07-28T10:10:34;54225.19;;;-136.87
14666;BMP280;7420;53.574;10.040;2023-07-28T10:13:00;54221.13;;;-136.87
14666;BMP280;7420;53.574;10.040;2023-07-28T10:15:30;54225.19;;;-136.87
14666;BMP280;7420;53.574;10.040;2023-07-28T10:17:57;54223.16;;;-136.87
14666;BMP280;7420;53.574;10.040;2023-07-28T10:20:37;54223.16;;;-136.87
14666;BMP280;7420;53.574;10.040;2023-07-28T10:23:17;54223.16;;;-136.87
14666;BMP280;7420;53.574;10.040;2023-07-28T10:25:45;54223.16;;;-136.87
14666;BMP280;7420;53.574;10.040;2023-07-28T10:28:38;54223.16;;;-136.87
14666;BMP280;7420;53.574;10.040;2023-07-28T10:31:07;54225.19;;;-136.87
14666;BMP280;7420;53.574;10.040;2023-07-28T10:33:38;54223.16;;;-136.87
14666;BMP280;7420;53.574;10.040;2023-07-28T10:36:14;54225.19;;;-136.87
14666;BMP280;7420;53.574;10.040;2023-07-28T10:38:40;54223.16;;;-136.87
14666;BMP280;7420;53.574;10.040;2023-07-28T10:41:14;54221.13;;;-136.87
14666;BMP280;7420;53.574;10.040;2023-07-28T10:43:40;54223.16;;;-136.87
14666;BMP280;7420;53.574;10.040;2023-07-28T10:46:08;54223.16;;;-136.87
14666;BMP280;7420;53.574;10.040;2023-07-28T10:48:35;54223.16;;;-136.87
14666;BMP280;7420;53.574;10.040;2023-07-28T10:51:01;54221.13;;;-136.87
14666;BMP280;7420;53.574;10.040;2023-07-28T10:53:26;54225.19;;;-136.87
14666;BMP280;7420;53.574;10.040;2023-07-28T10:55:52;54223.16;;;-136.87
14666;BMP280;7420;53.574;10.040;2023-07-28T10:58:19;54225.19;;;-136.87
14666;BMP280;7420;53.574;10.040;2023-07-28T11:00:45;54221.13;;;-136.87
14666;BMP280;7420;53.574;10.040;2023-07-28T11:03:12;54223.16;;;-136.87
14666;BMP280;7420;53.574;10.040;2023-07-28T11:05:37;54225.19;;;-136.87
14666;BMP280;7420;53.574;10.040;2023-07-28T11:08:03;54225.19;;;-136.87
14666;BMP280;7420;53.574;10.040;2023-07-28T11:10:29;54227.25;;;-136.87
14666;BMP280;7420;53.574;10.040;2023-07-28T11:12:58;54225.19;;;-136.87
14666;BMP280;7420;53.574;10.040;2023-07-28T11:15:24;54227.25;;;-136.87
14666;BMP280;7420;53.574;10.040;2023-07-28T11:17:50;54223.16;;;-136.87
14666;BMP280;7420;53.574;10.040;2023-07-28T11:22:51;54223.16;;;-136.87
14666;BMP280;7420;53.574;10.040;2023-07-28T11:25:17;54225.19;;;-136.87
14666;BMP280;7420;53.574;10.040;2023-07-28T11:27:42;54229.28;;;-136.87
14666;BMP280;7420;53.574;10.040;2023-07-28T11:30:08;54235.41;;;-136.87
14666;BMP280;7420;53.574;10.040;2023-07-28T11:32:35;54233.38;;;-136.87
14666;BMP280;7420;53.574;10.040;2023-07-28T11:35:09;54231.31;;;-136.87
14666;BMP280;7420;53.574;10.040;2023-07-28T11:37:35;54233.38;;;-136.87
14666;BMP280;7420;53.574;10.040;2023-07-28T11:40:02;54239.50;;;-136.87
14666;BMP280;7420;53.574;10.040;2023-07-28T11:42:33;54237.44;;;-136.87
14666;BMP280;7420;53.574;10.040;2023-07-28T11:44:59;54237.44;;;-136.87
14666;BMP280;7420;53.574;10.040;2023-07-28T11:47:25;54237.44;;;-136.87
14666;BMP280;7420;53.574;10.040;2023-07-28T11:49:50;54241.53;;;-136.87
14666;BMP280;7420;53.574;10.040;2023-07-28T11:52:17;54237.44;;;-136.87
14666;BMP280;7420;53.574;10.040;2023-07-28T11:54:43;54235.41;;;-136.87
14666;BMP280;7420;53.574;10.040;2023-07-28T11:57:10;54233.38;;;-136.87
14666;BMP280;7420;53.574;10.040;2023-07-28T11:59:35;54235.41;;;-136.87
14666;BMP280;7420;53.574;10.040;2023-07-28T12:02:03;54237.44;;;-136.87
14666;BMP280;7420;53.574;10.040;2023-07-28T12:04:39;54237.44;;;-136.87
14666;BMP280;7420;53.574;10.040;2023-07-28T12:07:15;54239.50;;;-136.87
14666;BMP280;7420;53.574;10.040;2023-07-28T12:12:27;54237.44;;;-136.87
14666;BMP280;7420;53.574;10.040;2023-07-28T12:14:54;54237.44;;;-136.87
14666;BMP280;7420;53.574;10.040;2023-07-28T12:17:22;54237.44;;;-136.87
14666;BMP280;7420;53.574;10.040;2023-07-28T12:19:58;54239.50;;;-136.87
14666;BMP280;7420;53.574;10.040;2023-07-28T12:22:24;54237.44;;;-136.87
14666;BMP280;7420;53.574;10.040;2023-07-28T12:24:49;54237.44;;;-136.87
14666;BMP280;7420;53.574;10.040;2023-07-28T12:27:14;54239.50;;;-136.87
14666;BMP280;7420;53.574;10.040;2023-07-28T12:29:41;54237.44;;;-136.87
14666;BMP280;7420;53.574;10.040;2023-07-28T12:32:06;54233.38;;;-136.87
14666;BMP280;7420;53.574;10.040;2023-07-28T12:34:32;54237.44;;;-136.87
14666;BMP280;7420;53.574;10.040;2023-07-28T12:36:58;54235.41;;;-136.87
14666;BMP280;7420;53.574;10.040;2023-07-28T12:39:23;54235.41;;;-136.87
14666;BMP280;7420;53.574;10.040;2023-07-28T12:41:49;54239.50;;;-136.87
14666;BMP280;7420;53.574;10.040;2023-07-28T12:44:15;54237.44;;;-136.87
14666;BMP280;7420;53.574;10.040;2023-07-28T12:46:40;54241.53;;;-136.87
14666;BMP280;7420;53.574;10.040;2023-07-28T12:49:05;54239.50;;;-136.87
14666;BMP280;7420;53.574;10.040;2023-07-28T12:51:32;54241.53;;;-136.87
14666;BMP280;7420;53.574;10.040;2023-07-28T12:53:57;54241.53;;;-136.87
14666;BMP280;7420;53.574;10.040;2023-07-28T12:56:23;54239.50;;;-136.87
14666;BMP280;7420;53.574;10.040;2023-07-28T12:58:48;54241.53;;;-136.87
14666;BMP280;7420;53.574;10.040;2023-07-28T13:01:14;54239.50;;;-136.87
14666;BMP280;7420;53.574;10.040;2023-07-28T13:03:39;54241.53;;;-136.87
14666;BMP280;7420;53.574;10.040;2023-07-28T13:06:04;54237.44;;;-136.87
14666;BMP280;7420;53.574;10.040;2023-07-28T13:08:30;54237.44;;;-136.87
14666;BMP280;7420;53.574;10.040;2023-07-28T13:10:55;54241.53;;;-136.87
14666;BMP280;7420;53.574;10.040;2023-07-28T13:13:21;54239.50;;;-136.87
14666;BMP280;7420;53.574;10.040;2023-07-28T13:15:46;54237.44;;;-136.87
14666;BMP280;7420;53.574;10.040;2023-07-28T13:18:11;54241.53;;;-136.87
14666;BMP280;7420;53.574;10.040;2023-07-28T13:20:37;54241.53;;;-136.87
14666;BMP280;7420;53.574;10.040;2023-07-28T13:23:02;54239.50;;;-136.87
14666;BMP280;7420;53.574;10.040;2023-07-28T13:25:28;54237.44;;;-136.87
14666;BMP280;7420;53.574;10.040;2023-07-28T13:27:53;54241.53;;;-136.87
14666;BMP280;7420;53.574;10.040;2023-07-28T13:30:18;54237.44;;;-136.87
14666;BMP280;7420;53.574;10.040;2023-07-28T13:32:44;54241.53;;;-136.87
14666;BMP280;7420;53.574;10.040;2023-07-28T13:35:09;54237.44;;;-136.87
14666;BMP280;7420;53.574;10.040;2023-07-28T13:37:34;54241.53;;;-136.87
14666;BMP280;7420;53.574;10.040;2023-07-28T13:40:00;54243.59;;;-136.87
14666;BMP280;7420;53.574;10.040;2023-07-28T13:42:25;54237.44;;;-136.87
14666;BMP280;7420;53.574;10.040;2023-07-28T13:44:50;54239.50;;;-136.87
14666;BMP280;7420;53.574;10.040;2023-07-28T13:47:16;54237.44;;;-136.87
14666;BMP280;7420;53.574;10.040;2023-07-28T13:49:41;54243.59;;;-136.87
14666;BMP280;7420;53.574;10.040;2023-07-28T13:52:06;54241.53;;;-136.87